Time;durP1;ratioP1;P1;durP2;ratioP2;P2;SDS_P1;SDS_P2;PMS_P1;PMS_P2;Temp;Humidity;BMP_temperature;BMP_pressure;BME280_temperature;BME280_humidity;BME280_pressure;Samples;Min_cycle;Max_cycle;Signal;HPM_P1;HPM_P2
2021/07/30 00:04:20;;;;;;;9.50;3.63;;;;;;;14.94;59.92;99511.53;10368293;28;20405;-60
2021/07/30 00:09:22;;;;;;;9.07;3.42;;;;;;;14.95;59.97;99500.88;10368163;28;20061;-59
2021/07/30 00:14:23;;;;;;;8.35;3.50;;;;;;;14.97;60.04;99506.84;10367186;28;20042;-60
2021/07/30 00:19:25;;;;;;;7.03;3.70;;;;;;;14.84;60.16;99503.56;10367139;28;20057;-60
2021/07/30 00:24:27;;;;;;;7.45;3.28;;;;;;;14.81;60.50;99508.25;10366800;28;20157;-60
2021/07/30 00:29:28;;;;;;;7.05;3.53;;;;;;;14.84;60.26;99502.75;10367145;28;20058;-60
2021/07/30 00:34:30;;;;;;;6.75;3.70;;;;;;;14.72;60.68;99503.75;10366486;28;20492;-60
2021/07/30 00:39:32;;;;;;;6.57;3.50;;;;;;;14.76;60.45;99503.38;10367005;28;20137;-59
2021/07/30 00:44:34;;;;;;;7.38;3.60;;;;;;;14.73;60.38;99497.53;10345582;28;20054;-60
2021/07/30 00:49:35;;;;;;;6.22;3.20;;;;;;;14.69;60.56;99496.13;10347683;28;20049;-60
2021/07/30 00:54:37;;;;;;;8.73;3.40;;;;;;;14.59;60.68;99501.31;10365555;28;20153;-60
2021/07/30 00:59:39;;;;;;;7.45;4.00;;;;;;;14.43;60.79;99498.25;10349697;28;20052;-59
2021/07/30 01:04:41;;;;;;;7.88;3.83;;;;;;;14.38;60.89;99500.41;10365134;28;20132;-59
2021/07/30 01:09:43;;;;;;;8.20;3.53;;;;;;;14.29;61.25;99499.38;10365782;28;20165;-59
2021/07/30 01:14:45;;;;;;;6.72;3.85;;;;;;;14.31;61.42;99505.34;10355578;28;20056;-60
2021/07/30 01:19:47;;;;;;;6.25;3.67;;;;;;;14.32;61.65;99499.13;10364421;28;20081;-60
2021/07/30 01:24:52;;;;;;;7.05;4.05;;;;;;;14.28;61.99;99495.09;10364549;28;20125;-60
2021/07/30 01:29:54;;;;;;;9.13;4.03;;;;;;;14.23;61.97;99499.88;10364738;28;20140;-59
2021/07/30 01:34:56;;;;;;;8.45;3.78;;;;;;;14.22;62.05;99500.84;10363333;28;20120;-60
2021/07/30 01:39:57;;;;;;;8.13;3.95;;;;;;;14.21;61.59;99504.41;10364155;28;20578;-59
2021/07/30 01:44:59;;;;;;;5.80;3.58;;;;;;;14.07;61.62;99499.44;10363509;28;20133;-59
2021/07/30 01:50:02;;;;;;;7.72;3.65;;;;;;;13.92;62.03;99498.06;10363832;28;20058;-60
2021/07/30 01:55:04;;;;;;;6.68;3.40;;;;;;;13.92;61.83;99498.06;10371463;28;20546;-60
2021/07/30 02:00:06;;;;;;;7.55;3.75;;;;;;;13.92;62.08;99494.59;10339903;28;20780;-59
2021/07/30 02:05:09;;;;;;;7.22;3.60;;;;;;;13.96;61.98;99488.13;10370061;28;20136;-60
2021/07/30 02:10:10;;;;;;;6.88;3.83;;;;;;;13.87;61.91;99489.69;10371149;28;20156;-59
2021/07/30 02:15:12;;;;;;;6.50;3.38;;;;;;;13.82;61.90;99486.59;10370370;28;20146;-60
2021/07/30 02:20:14;;;;;;;6.72;4.30;;;;;;;13.83;62.19;99487.44;10369056;28;20052;-59
2021/07/30 02:25:15;;;;;;;10.13;3.95;;;;;;;13.58;62.46;99485.91;10371124;28;20129;-59
2021/07/30 02:30:17;;;;;;;6.30;3.70;;;;;;;13.37;62.83;99484.97;10369550;28;20132;-59
2021/07/30 02:35:19;;;;;;;8.63;4.15;;;;;;;13.35;62.77;99490.31;10371083;28;20130;-59
2021/07/30 02:40:20;;;;;;;8.45;3.88;;;;;;;13.39;62.87;99478.63;10360393;28;20137;-59
2021/07/30 02:45:22;;;;;;;7.97;3.80;;;;;;;13.44;62.50;99475.66;10360445;28;20132;-60
2021/07/30 02:50:24;;;;;;;8.77;4.90;;;;;;;13.37;62.43;99471.84;10369640;28;20097;-60
2021/07/30 02:55:25;;;;;;;8.88;4.72;;;;;;;12.95;62.87;99482.06;10369550;28;20474;-59
2021/07/30 03:00:27;;;;;;;6.40;4.30;;;;;;;12.89;63.22;99469.41;10369545;28;20141;-60
2021/07/30 03:05:29;;;;;;;7.85;3.50;;;;;;;13.03;63.33;99459.66;10364748;28;20136;-59
2021/07/30 03:10:30;;;;;;;8.20;4.18;;;;;;;13.09;63.02;99459.19;10351947;28;20058;-60
2021/07/30 03:15:32;;;;;;;5.65;3.78;;;;;;;13.08;63.22;99465.38;10350214;28;20104;-59
2021/07/30 03:20:34;;;;;;;9.35;4.65;;;;;;;13.07;63.12;99466.34;10361912;28;20056;-60
2021/07/30 03:25:36;;;;;;;6.45;3.67;;;;;;;13.09;63.22;99460.00;10362734;28;20680;-60
2021/07/30 03:30:38;;;;;;;13.13;4.32;;;;;;;13.13;62.95;99458.00;10361798;28;20068;-59
2021/07/30 03:35:40;;;;;;;10.55;3.80;;;;;;;13.10;62.93;99461.69;10362014;28;20136;-59
2021/07/30 03:40:46;;;;;;;7.90;4.60;;;;;;;13.04;63.10;99459.53;10363817;28;20085;-60
2021/07/30 03:45:48;;;;;;;9.13;4.82;;;;;;;13.03;62.98;99464.91;10369701;28;20054;-59
2021/07/30 03:50:50;;;;;;;13.35;4.70;;;;;;;13.02;62.90;99458.81;10369536;28;20050;-60
2021/07/30 03:55:51;;;;;;;11.32;4.72;;;;;;;12.95;63.18;99463.69;10368820;28;20663;-60
2021/07/30 04:00:53;;;;;;;19.73;5.10;;;;;;;12.76;63.01;99479.16;10369221;28;20466;-59
2021/07/30 04:05:55;;;;;;;24.85;4.45;;;;;;;12.84;63.50;99476.78;10368716;28;20483;-59
2021/07/30 04:10:58;;;;;;;12.82;4.18;;;;;;;12.92;63.22;99474.41;10368990;28;20397;-59
2021/07/30 04:16:02;;;;;;;11.90;4.68;;;;;;;12.94;63.09;99472.50;10368131;28;20069;-59
2021/07/30 04:21:07;;;;;;;10.65;5.28;;;;;;;12.93;63.05;99475.25;10327421;28;20145;-59
2021/07/30 04:26:09;;;;;;;11.60;5.15;;;;;;;12.99;63.07;99485.28;10360333;28;20050;-59
2021/07/30 04:31:11;;;;;;;15.07;5.22;;;;;;;13.14;62.83;99468.38;10366859;28;20073;-59
2021/07/30 04:36:15;;;;;;;9.52;4.82;;;;;;;13.37;62.59;99466.56;10366925;28;20046;-59
2021/07/30 04:41:17;;;;;;;8.82;5.50;;;;;;;13.66;62.01;99458.09;10367657;28;20053;-59
2021/07/30 04:46:19;;;;;;;6.53;4.32;;;;;;;13.83;61.41;99456.75;10366922;28;20046;-59
2021/07/30 04:51:21;;;;;;;147.32;8.73;;;;;;;13.58;61.74;99463.13;10366834;28;20052;-60
2021/07/30 04:56:22;;;;;;;66.35;8.05;;;;;;;13.69;61.66;99457.84;10360394;28;20069;-59
2021/07/30 05:01:25;;;;;;;10.02;4.13;;;;;;;16.06;57.18;99445.38;10339417;28;20061;-59
2021/07/30 05:06:27;;;;;;;6.20;3.40;;;;;;;18.79;50.45;99441.06;10366102;28;20140;-59
2021/07/30 05:11:28;;;;;;;6.65;4.07;;;;;;;18.96;49.30;99435.72;10365342;28;20057;-59
2021/07/30 05:16:30;;;;;;;4.93;2.97;;;;;;;19.83;47.24;99430.16;10365989;28;20049;-59
2021/07/30 05:21:32;;;;;;;5.50;2.70;;;;;;;19.67;46.52;99438.88;10366503;28;20074;-60
2021/07/30 05:26:34;;;;;;;7.47;3.20;;;;;;;18.76;48.48;99439.56;10364519;28;20060;-60
2021/07/30 05:31:35;;;;;;;5.00;3.10;;;;;;;17.98;49.92;99439.50;10366077;28;20146;-59
2021/07/30 05:36:37;;;;;;;6.22;3.30;;;;;;;17.39;51.45;99440.84;10365122;28;20045;-59
2021/07/30 05:41:39;;;;;;;6.75;3.13;;;;;;;16.83;52.76;99442.69;10365305;28;20413;-60
2021/07/30 05:46:40;;;;;;;7.22;2.95;;;;;;;16.62;53.13;99440.25;10340049;28;20062;-59
2021/07/30 05:51:42;;;;;;;6.13;3.50;;;;;;;16.41;53.87;99436.88;10365340;28;20069;-59
2021/07/30 05:56:44;;;;;;;5.28;3.03;;;;;;;16.21;54.78;99441.34;10363870;28;20053;-60
2021/07/30 06:01:46;;;;;;;9.95;3.10;;;;;;;16.43;54.46;99432.34;10364140;28;20128;-59
2021/07/30 06:06:48;;;;;;;5.70;3.42;;;;;;;16.68;54.14;99425.63;10362479;28;20152;-59
2021/07/30 06:11:49;;;;;;;8.25;3.50;;;;;;;16.76;54.27;99421.31;10364582;28;20089;-59
2021/07/30 06:16:51;;;;;;;4.80;3.45;;;;;;;16.93;53.95;99417.94;10355026;28;20477;-59
2021/07/30 06:21:53;;;;;;;6.68;3.78;;;;;;;16.90;54.34;99418.22;10353834;28;20052;-59
2021/07/30 06:26:56;;;;;;;6.57;3.53;;;;;;;17.20;54.23;99405.72;10361180;28;20590;-59
2021/07/30 06:31:58;;;;;;;10.02;4.05;;;;;;;17.37;53.57;99411.09;10384396;28;20077;-59
2021/07/30 06:37:00;;;;;;;7.32;3.95;;;;;;;17.50;53.59;99410.75;10366112;28;20050;-59
2021/07/30 06:42:03;;;;;;;6.50;3.72;;;;;;;17.63;52.81;99414.69;10358754;28;20045;-59
2021/07/30 06:47:05;;;;;;;6.82;3.70;;;;;;;17.38;53.34;99409.28;10376298;28;20726;-59
2021/07/30 06:52:07;;;;;;;6.57;3.45;;;;;;;17.32;53.10;99404.56;10357711;28;20053;-59
2021/07/30 06:57:11;;;;;;;7.05;3.75;;;;;;;17.36;53.36;99409.44;10346790;28;20127;-58
2021/07/30 07:02:12;;;;;;;7.03;3.50;;;;;;;17.34;53.50;99411.41;10357399;28;20227;-58
2021/07/30 07:07:15;;;;;;;6.80;3.20;;;;;;;17.58;53.11;99408.19;10359614;28;20402;-58
2021/07/30 07:12:16;;;;;;;6.93;3.53;;;;;;;17.80;52.69;99403.31;10347250;28;20052;-59
2021/07/30 07:17:19;;;;;;;8.63;3.40;;;;;;;17.96;53.33;99401.78;10343452;28;20078;-59
2021/07/30 07:22:21;;;;;;;9.88;3.20;;;;;;;18.25;52.37;99392.69;10342441;28;20079;-59
2021/07/30 07:27:23;;;;;;;5.97;3.10;;;;;;;18.53;52.05;99391.56;10355882;28;20137;-59
2021/07/30 07:32:25;;;;;;;8.68;3.05;;;;;;;18.69;51.67;99397.97;10353042;28;20054;-59
2021/07/30 07:37:28;;;;;;;10.90;3.35;;;;;;;19.18;51.27;99381.34;10338605;28;20048;-58
2021/07/30 07:42:30;;;;;;;8.43;3.03;;;;;;;20.42;48.74;99366.16;10350915;28;20050;-59
2021/07/30 07:47:33;;;;;;;8.70;2.80;;;;;;;21.91;45.42;99358.94;10337961;28;20208;-58
2021/07/30 07:52:34;;;;;;;7.65;2.30;;;;;;;23.07;42.72;99353.06;10344110;28;20138;-59
2021/07/30 07:57:43;;;;;;;7.67;2.43;;;;;;;24.61;39.35;99340.91;10325709;28;20520;-59
2021/07/30 08:02:46;;;;;;;9.00;2.88;;;;;;;25.54;38.00;99339.34;10338968;28;20292;-58
2021/07/30 08:07:47;;;;;;;6.55;2.60;;;;;;;26.27;36.35;99325.06;10330454;28;20053;-58
2021/07/30 08:12:50;;;;;;;5.80;2.00;;;;;;;25.92;35.85;99326.25;10326011;28;20042;-58
2021/07/30 08:17:52;;;;;;;6.55;2.15;;;;;;;26.28;35.45;99320.53;10359813;28;20494;-58
2021/07/30 08:22:54;;;;;;;4.93;2.10;;;;;;;26.82;34.07;99322.94;10344760;28;20126;-58
2021/07/30 08:27:56;;;;;;;6.43;2.20;;;;;;;27.09;32.65;99314.59;10374796;28;20548;-59
2021/07/30 08:32:58;;;;;;;5.40;2.20;;;;;;;27.17;31.91;99306.34;10363560;28;20089;-58
2021/07/30 08:38:01;;;;;;;6.82;2.10;;;;;;;27.34;31.34;99299.44;10358253;28;20124;-58
2021/07/30 08:43:03;;;;;;;5.82;2.05;;;;;;;27.97;30.55;99281.47;10362680;28;20136;-58
2021/07/30 08:48:05;;;;;;;8.35;2.15;;;;;;;27.84;29.65;99286.97;10363633;28;20495;-59
2021/07/30 08:53:11;;;;;;;6.40;1.88;;;;;;;27.64;29.90;99288.94;10360953;28;20167;-58
2021/07/30 08:58:13;;;;;;;5.53;2.13;;;;;;;27.64;29.78;99290.78;10369579;28;20060;-58
2021/07/30 09:03:15;;;;;;;6.65;2.15;;;;;;;27.97;28.70;99272.59;10362011;28;20136;-59
2021/07/30 09:08:24;;;;;;;4.95;2.17;;;;;;;27.99;28.43;99281.28;10369975;28;20049;-58
2021/07/30 09:13:27;;;;;;;9.13;2.15;;;;;;;28.45;28.62;99270.94;10353236;28;20046;-59
2021/07/30 09:18:30;;;;;;;3.85;1.95;;;;;;;28.79;28.12;99258.75;10352201;28;20050;-59
2021/07/30 09:23:32;;;;;;;7.47;2.35;;;;;;;28.22;28.74;99258.09;10360835;28;20133;-59
2021/07/30 09:28:33;;;;;;;4.07;1.90;;;;;;;26.67;30.18;99264.16;10341667;28;20068;-59
2021/07/30 09:33:35;;;;;;;3.90;1.90;;;;;;;26.16;31.19;99263.22;10369498;28;20053;-58
2021/07/30 09:38:37;;;;;;;4.05;1.98;;;;;;;25.98;31.37;99255.78;10360748;28;20590;-58
2021/07/30 09:43:43;;;;;;;8.40;2.20;;;;;;;26.34;31.33;99245.47;10327643;28;20042;-59
2021/07/30 09:48:52;;;;;;;4.75;2.08;;;;;;;26.85;30.06;99245.53;10353868;28;20077;-59
2021/07/30 09:53:54;;;;;;;4.13;2.15;;;;;;;26.04;31.68;99238.88;10350039;28;20084;-58
2021/07/30 09:58:57;;;;;;;4.68;2.20;;;;;;;25.98;31.36;99239.69;10352556;28;20074;-59
2021/07/30 10:04:01;;;;;;;7.15;2.20;;;;;;;25.41;32.09;99229.53;10376615;28;20081;-58
2021/07/30 10:09:05;;;;;;;8.38;1.90;;;;;;;25.55;32.30;99225.84;10319152;28;20446;-58
2021/07/30 10:14:08;;;;;;;6.90;2.40;;;;;;;25.88;31.34;99215.97;10362529;28;20126;-58
2021/07/30 10:19:10;;;;;;;3.78;2.13;;;;;;;26.55;31.16;99207.66;10332632;28;20054;-58
2021/07/30 10:24:13;;;;;;;4.68;2.03;;;;;;;27.11;29.90;99191.72;10370824;28;20133;-58
2021/07/30 10:29:14;;;;;;;8.25;2.30;;;;;;;27.31;29.02;99191.63;10341946;28;20066;-58
2021/07/30 10:34:18;;;;;;;3.47;2.00;;;;;;;27.36;29.21;99184.56;10343696;28;20052;-58
2021/07/30 10:39:19;;;;;;;5.10;1.75;;;;;;;27.23;29.62;99173.09;10356368;28;20779;-58
2021/07/30 10:44:21;;;;;;;4.65;2.10;;;;;;;27.19;30.12;99179.94;10357922;28;20558;-58
2021/07/30 10:49:41;;;;;;;5.03;2.05;;;;;;;27.22;29.90;99161.53;10341866;28;20140;-59
2021/07/30 10:54:49;;;;;;;4.18;2.25;;;;;;;26.84;30.98;99157.19;10354059;28;20140;-59
2021/07/30 11:00:04;;;;;;;4.55;2.20;;;;;;;26.74;31.08;99163.03;10338216;28;20542;-59
2021/07/30 11:05:06;;;;;;;4.80;2.20;;;;;;;26.56;31.39;99160.22;10355569;28;20455;-58
2021/07/30 11:10:17;;;;;;;8.18;2.50;;;;;;;26.78;31.31;99150.00;10358904;28;20056;-59
2021/07/30 11:15:19;;;;;;;4.95;2.20;;;;;;;26.83;31.14;99144.81;10363947;28;20050;-59
2021/07/30 11:20:22;;;;;;;6.07;2.17;;;;;;;26.60;30.71;99150.72;10369201;28;20049;-59
2021/07/30 11:25:27;;;;;;;5.18;2.17;;;;;;;26.53;30.58;99156.06;10351355;28;20069;-58
2021/07/30 11:30:30;;;;;;;4.90;2.05;;;;;;;26.85;31.15;99151.63;10349031;28;20100;-58
2021/07/30 11:35:39;;;;;;;5.65;2.35;;;;;;;26.97;30.97;99138.34;10350906;28;20075;-59
2021/07/30 11:40:41;;;;;;;;;;;;;;;26.73;30.89;99137.22;10357910;28;20046;-59
2021/07/30 11:45:43;;;;;;;5.50;2.20;;;;;;;26.84;31.35;99133.03;10361261;28;20025;-59
2021/07/30 11:50:45;;;;;;;5.28;2.03;;;;;;;26.61;30.28;99128.22;10360154;28;20089;-59
2021/07/30 11:55:55;;;;;;;4.53;2.10;;;;;;;26.84;30.40;99116.94;10362331;28;20129;-59
2021/07/30 12:01:10;;;;;;;3.75;1.92;;;;;;;26.58;30.69;99107.19;10359663;28;20045;-59
2021/07/30 12:06:12;;;;;;;4.15;2.20;;;;;;;26.69;30.89;99109.19;10379230;28;20712;-59
2021/07/30 12:11:14;;;;;;;4.03;2.08;;;;;;;27.01;30.14;99100.13;10363115;28;20827;-59
2021/07/30 12:16:18;;;;;;;8.27;2.00;;;;;;;27.13;29.65;99101.06;10385482;28;20401;-59
2021/07/30 12:21:20;;;;;;;3.88;2.08;;;;;;;27.13;29.93;99100.25;10373552;28;20054;-59
2021/07/30 12:26:29;;;;;;;4.60;1.92;;;;;;;27.00;30.07;99087.75;10364037;28;20115;-59
2021/07/30 12:31:34;;;;;;;4.75;2.38;;;;;;;27.10;29.85;99082.69;10360346;28;20096;-59
2021/07/30 12:36:36;;;;;;;5.80;2.28;;;;;;;26.83;30.56;99075.91;10361501;28;20045;-59
2021/07/30 12:41:37;;;;;;;3.85;2.08;;;;;;;26.94;30.85;99067.13;10364804;28;20064;-59
2021/07/30 12:46:42;;;;;;;4.97;2.22;;;;;;;26.96;30.62;99054.31;10378216;28;20066;-59
2021/07/30 12:51:44;;;;;;;4.47;2.28;;;;;;;26.98;30.08;99056.78;10369984;28;20047;-59
2021/07/30 12:57:06;;;;;;;6.00;2.30;;;;;;;26.87;30.05;99046.75;10359495;28;20129;-58
2021/07/30 13:02:07;;;;;;;4.93;2.30;;;;;;;26.96;30.22;99037.38;10362743;28;20050;-59
2021/07/30 13:07:10;;;;;;;5.38;2.17;;;;;;;27.29;30.32;99028.06;10362656;28;20049;-59
2021/07/30 13:12:12;;;;;;;5.90;2.42;;;;;;;27.08;30.01;99019.53;10363720;28;20414;-59
2021/07/30 13:17:14;;;;;;;4.97;2.40;;;;;;;27.26;30.81;99023.13;10364095;28;20133;-59
2021/07/30 13:22:16;;;;;;;8.93;2.50;;;;;;;27.72;29.80;99011.97;10363170;28;20062;-59
2021/07/30 13:27:18;;;;;;;5.03;2.33;;;;;;;27.59;29.31;99004.00;10353924;28;20136;-59
2021/07/30 13:32:19;;;;;;;6.32;2.38;;;;;;;27.88;29.59;98999.78;10357013;28;20149;-59
2021/07/30 13:37:21;;;;;;;6.90;2.42;;;;;;;27.89;28.90;98993.38;10357534;28;20083;-59
2021/07/30 13:42:23;;;;;;;3.50;2.15;;;;;;;27.82;29.52;98989.94;10362945;28;20582;-59
2021/07/30 13:47:24;;;;;;;5.93;2.25;;;;;;;27.90;29.48;98977.00;10363392;28;20046;-59
2021/07/30 13:52:30;;;;;;;4.45;2.40;;;;;;;27.81;29.56;98970.28;10362684;28;20050;-59
2021/07/30 13:57:35;;;;;;;6.60;2.30;;;;;;;27.77;29.20;98973.69;10352381;28;20064;-59
2021/07/30 14:02:38;;;;;;;7.30;2.40;;;;;;;27.83;29.68;98970.88;10327586;28;20451;-59
2021/07/30 14:07:43;;;;;;;5.97;2.60;;;;;;;27.69;29.70;98973.94;10358055;28;20054;-59
2021/07/30 14:12:45;;;;;;;5.88;2.60;;;;;;;27.70;29.97;98965.66;10330246;28;20136;-59
2021/07/30 14:17:47;;;;;;;4.20;2.35;;;;;;;27.68;29.34;98950.81;10335355;28;20464;-59
2021/07/30 14:22:49;;;;;;;5.03;2.65;;;;;;;27.61;30.26;98953.56;10353557;28;20042;-59
2021/07/30 14:27:51;;;;;;;6.13;2.53;;;;;;;27.27;29.96;98944.25;10362246;28;20060;-59
2021/07/30 14:32:52;;;;;;;3.72;2.33;;;;;;;27.42;29.78;98939.31;10362880;28;20410;-59
2021/07/30 14:37:54;;;;;;;7.07;2.67;;;;;;;27.54;29.93;98931.34;10349098;28;20400;-59
2021/07/30 14:42:57;;;;;;;6.95;2.70;;;;;;;27.67;30.00;98939.22;10336894;28;20136;-59
2021/07/30 14:47:59;;;;;;;7.55;2.65;;;;;;;27.88;29.61;98929.91;10361793;28;20513;-59
2021/07/30 14:53:01;;;;;;;5.45;2.60;;;;;;;27.66;29.53;98931.41;10362104;28;20077;-59
2021/07/30 14:58:02;;;;;;;6.90;2.75;;;;;;;27.78;29.77;98940.38;10360467;28;20203;-59
2021/07/30 15:03:06;;;;;;;10.10;3.10;;;;;;;27.19;30.47;98947.22;10358071;28;20125;-59
2021/07/30 15:08:09;;;;;;;6.22;2.72;;;;;;;27.41;30.19;98948.41;10364893;28;20549;-59
2021/07/30 15:13:11;;;;;;;6.03;2.70;;;;;;;27.92;29.92;98942.66;10360087;28;20474;-59
2021/07/30 15:18:12;;;;;;;5.15;2.70;;;;;;;28.27;29.74;98937.44;10360700;28;20132;-59
2021/07/30 15:23:14;;;;;;;6.05;2.70;;;;;;;28.00;28.99;98944.22;10390257;28;20050;-59
2021/07/30 15:28:16;;;;;;;5.47;3.00;;;;;;;27.69;30.35;98941.72;10361312;28;20054;-59
2021/07/30 15:33:18;;;;;;;6.20;2.60;;;;;;;27.41;30.66;98947.59;10346817;28;20057;-59
2021/07/30 15:38:20;;;;;;;5.35;2.70;;;;;;;27.08;31.25;98955.94;10380180;28;20500;-59
2021/07/30 15:43:21;;;;;;;6.10;2.70;;;;;;;27.16;31.05;98944.13;10400668;28;20081;-59
2021/07/30 15:48:23;;;;;;;6.95;2.38;;;;;;;27.36;30.50;98942.88;10333844;28;20062;-59
2021/07/30 15:53:25;;;;;;;9.50;2.90;;;;;;;27.68;30.59;98938.19;10397776;28;20128;-59
2021/07/30 15:58:27;;;;;;;4.53;2.70;;;;;;;27.56;29.94;98926.56;10346041;28;20979;-59
2021/07/30 16:03:29;;;;;;;6.88;2.80;;;;;;;27.49;29.83;98932.00;10339655;28;20104;-59
2021/07/30 16:08:31;;;;;;;5.25;2.70;;;;;;;27.40;30.55;98932.53;10364962;28;20054;-59
2021/07/30 16:13:32;;;;;;;5.55;2.58;;;;;;;27.44;29.49;98928.38;10355456;28;20134;-59
2021/07/30 16:18:36;;;;;;;4.03;2.60;;;;;;;27.24;30.05;98930.44;10364124;28;20046;-59
2021/07/30 16:23:38;;;;;;;5.38;2.78;;;;;;;27.71;30.17;98918.13;10396000;28;20049;-59
2021/07/30 16:28:40;;;;;;;4.38;3.03;;;;;;;27.83;29.56;98932.47;10375024;28;20506;-59
2021/07/30 16:33:42;;;;;;;6.85;3.10;;;;;;;27.87;29.63;98929.09;10338106;28;20144;-59
2021/07/30 16:38:44;;;;;;;4.93;2.88;;;;;;;27.75;29.23;98913.97;10363952;28;20121;-59
2021/07/30 16:43:47;;;;;;;6.90;3.25;;;;;;;27.76;29.10;98921.81;10350421;28;20046;-59
2021/07/30 16:48:49;;;;;;;5.07;3.10;;;;;;;27.70;29.01;98913.78;10358518;28;20141;-59
2021/07/30 16:53:50;;;;;;;4.43;3.00;;;;;;;27.65;28.92;98914.44;10398785;28;20056;-59
2021/07/30 16:58:52;;;;;;;6.53;2.92;;;;;;;27.44;29.02;98921.09;10349126;28;20137;-59
2021/07/30 17:03:54;;;;;;;5.45;2.80;;;;;;;27.46;29.76;98928.97;10333181;28;20077;-59
2021/07/30 17:08:57;;;;;;;5.57;2.67;;;;;;;27.42;29.57;98920.50;10347339;28;20573;-58
2021/07/30 17:13:59;;;;;;;5.45;3.05;;;;;;;27.23;29.31;98931.47;10360012;28;20042;-59
2021/07/30 17:19:01;;;;;;;8.35;2.90;;;;;;;26.93;29.70;98941.25;10365107;28;20062;-59
2021/07/30 17:24:07;;;;;;;7.15;2.80;;;;;;;26.66;30.02;98935.28;10363068;28;20085;-59
2021/07/30 17:29:09;;;;;;;5.22;3.00;;;;;;;26.40;30.70;98936.28;10338653;28;20051;-58
2021/07/30 17:34:11;;;;;;;8.82;3.00;;;;;;;26.46;30.88;98931.91;10369727;28;20608;-58
2021/07/30 17:39:13;;;;;;;7.45;3.20;;;;;;;26.43;31.07;98935.00;10333785;28;20054;-59
2021/07/30 17:44:15;;;;;;;5.00;3.20;;;;;;;26.00;32.04;98934.06;10359601;28;20041;-59
2021/07/30 17:49:17;;;;;;;6.22;2.88;;;;;;;25.80;32.12;98934.09;10339807;28;20133;-58
2021/07/30 17:54:19;;;;;;;5.65;3.70;;;;;;;25.42;32.61;98936.72;10355010;28;20054;-59
2021/07/30 17:59:20;;;;;;;4.93;2.90;;;;;;;25.09;33.43;98947.47;10347056;28;20045;-59
2021/07/30 18:04:22;;;;;;;6.63;3.28;;;;;;;24.90;33.63;98955.50;10343784;28;20050;-59
2021/07/30 18:09:24;;;;;;;8.70;3.25;;;;;;;24.85;34.00;98955.31;10328277;28;20082;-59
2021/07/30 18:14:26;;;;;;;6.88;3.10;;;;;;;24.52;34.25;98954.44;10366293;28;20045;-58
2021/07/30 18:19:28;;;;;;;7.18;3.20;;;;;;;24.36;34.66;98958.31;10383099;28;20128;-59
2021/07/30 18:24:30;;;;;;;9.52;3.25;;;;;;;24.20;34.89;98946.19;10377151;28;20481;-59
2021/07/30 18:29:32;;;;;;;7.20;3.20;;;;;;;24.07;35.10;98955.97;10351565;28;20148;-59
2021/07/30 18:34:34;;;;;;;8.35;3.00;;;;;;;24.07;35.07;98956.81;10354041;28;20045;-59
2021/07/30 18:39:36;;;;;;;5.13;3.30;;;;;;;24.06;35.35;98960.47;10359659;28;20134;-59
2021/07/30 18:44:38;;;;;;;6.40;2.92;;;;;;;23.93;35.84;98960.44;10324148;28;20503;-58
2021/07/30 18:49:40;;;;;;;4.45;3.13;;;;;;;23.73;36.27;98956.88;10358196;28;20136;-59
2021/07/30 18:54:41;;;;;;;5.65;2.95;;;;;;;23.62;36.67;98965.44;10358799;28;20077;-59
2021/07/30 18:59:43;;;;;;;4.85;2.60;;;;;;;23.44;36.51;98959.78;10362278;28;20788;-59
2021/07/30 19:04:44;;;;;;;4.00;2.53;;;;;;;23.33;37.18;98968.34;10363563;28;20565;-59
2021/07/30 19:09:46;;;;;;;4.07;2.55;;;;;;;23.18;37.72;98970.28;10364465;28;20045;-58
2021/07/30 19:14:48;;;;;;;6.95;2.58;;;;;;;23.00;37.69;98977.94;10371121;28;20152;-58
2021/07/30 19:19:50;;;;;;;5.68;2.72;;;;;;;22.91;38.07;98987.09;10355093;28;20057;-59
2021/07/30 19:24:51;;;;;;;5.28;2.63;;;;;;;22.79;38.51;98988.63;10361889;28;20128;-59
2021/07/30 19:29:53;;;;;;;5.38;2.60;;;;;;;22.76;38.65;98999.69;10369937;28;20143;-59
2021/07/30 19:34:55;;;;;;;6.60;2.67;;;;;;;22.72;38.90;98996.53;10369964;28;20046;-59
2021/07/30 19:39:56;;;;;;;4.97;2.60;;;;;;;22.72;38.98;99001.88;10369592;28;20124;-59
2021/07/30 19:44:58;;;;;;;4.68;2.55;;;;;;;22.76;39.28;98997.03;10366398;28;20140;-59
2021/07/30 19:50:01;;;;;;;5.47;2.45;;;;;;;22.66;39.24;99002.63;10340277;28;20132;-59
2021/07/30 19:55:06;;;;;;;5.88;2.40;;;;;;;22.70;39.65;99003.91;10369166;28;20475;-59
2021/07/30 20:00:09;;;;;;;4.35;2.38;;;;;;;22.74;40.34;99005.19;10369478;28;20096;-59
2021/07/30 20:05:11;;;;;;;8.40;2.40;;;;;;;22.62;39.67;99009.34;10368724;28;20481;-59
2021/07/30 20:10:13;;;;;;;9.15;2.40;;;;;;;22.42;39.90;99009.16;10369393;28;20136;-59
2021/07/30 20:15:15;;;;;;;6.47;2.38;;;;;;;22.26;40.91;99022.72;10368220;28;20413;-59
2021/07/30 20:20:17;;;;;;;9.25;3.00;;;;;;;22.10;41.55;99030.09;10365522;28;20050;-59
2021/07/30 20:25:19;;;;;;;6.43;2.63;;;;;;;21.92;42.09;99027.81;10367043;28;20077;-59
2021/07/30 20:30:21;;;;;;;3.80;2.40;;;;;;;21.64;42.60;99032.97;10370812;28;20064;-59
2021/07/30 20:35:22;;;;;;;5.10;2.42;;;;;;;21.42;42.68;99025.88;10361115;28;20049;-59
2021/07/30 20:40:24;;;;;;;4.47;2.30;;;;;;;21.25;43.39;99032.38;10344213;28;20056;-59
2021/07/30 20:45:26;;;;;;;5.75;2.53;;;;;;;21.15;43.82;99044.25;10340274;28;20049;-59
2021/07/30 20:50:27;;;;;;;6.90;2.60;;;;;;;21.03;43.84;99051.81;10361758;28;20415;-59
2021/07/30 20:55:29;;;;;;;6.00;2.30;;;;;;;21.00;43.93;99049.53;10356008;28;20537;-59
2021/07/30 21:00:31;;;;;;;4.07;2.20;;;;;;;20.89;44.34;99064.06;10385021;28;20045;-59
2021/07/30 21:05:33;;;;;;;4.85;2.25;;;;;;;20.79;44.16;99063.50;10356805;28;20465;-59
2021/07/30 21:10:34;;;;;;;6.40;2.28;;;;;;;20.75;44.02;99075.47;10358454;28;20597;-59
2021/07/30 21:15:38;;;;;;;5.53;2.40;;;;;;;20.70;44.17;99074.34;10365755;28;20133;-59
2021/07/30 21:20:41;;;;;;;4.10;2.05;;;;;;;20.64;44.27;99081.19;10368893;28;20131;-59
2021/07/30 21:25:43;;;;;;;5.00;2.15;;;;;;;20.70;44.48;99077.00;10376328;28;20049;-59
2021/07/30 21:30:45;;;;;;;5.68;1.98;;;;;;;20.52;44.21;99071.94;10369806;28;20058;-59
2021/07/30 21:35:47;;;;;;;7.45;2.08;;;;;;;20.48;44.30;99085.75;10384187;28;20064;-59
2021/07/30 21:40:49;;;;;;;6.32;2.00;;;;;;;20.39;43.67;99087.63;10364561;28;20046;-60
2021/07/30 21:45:52;;;;;;;8.60;2.00;;;;;;;20.34;43.55;99089.97;10381988;28;20058;-59
2021/07/30 21:50:55;;;;;;;8.63;1.80;;;;;;;20.26;43.28;99103.28;10395771;28;20057;-59
2021/07/30 21:55:56;;;;;;;6.45;1.73;;;;;;;20.16;42.32;99108.81;10378988;28;20038;-60
2021/07/30 22:00:59;;;;;;;3.88;1.60;;;;;;;20.16;42.59;99115.94;10370728;28;20042;-59
2021/07/30 22:06:01;;;;;;;4.35;1.70;;;;;;;20.05;41.90;99116.34;10385555;28;20498;-59
2021/07/30 22:11:03;;;;;;;6.38;1.60;;;;;;;19.94;42.58;99127.31;10378092;28;20164;-60
2021/07/30 22:16:05;;;;;;;5.05;1.48;;;;;;;19.73;41.50;99135.78;10375277;28;20129;-60
2021/07/30 22:21:08;;;;;;;5.75;1.60;;;;;;;19.63;41.13;99136.94;10366783;28;20042;-59
2021/07/30 22:26:10;;;;;;;4.65;1.67;;;;;;;19.60;42.01;99132.00;10386815;28;20140;-59
2021/07/30 22:31:11;;;;;;;6.93;1.90;;;;;;;19.53;40.94;99128.34;10378622;28;20072;-59
2021/07/30 22:36:13;;;;;;;7.75;1.50;;;;;;;19.50;40.72;99128.69;10376046;28;20042;-59
2021/07/30 22:41:19;;;;;;;7.53;1.63;;;;;;;19.42;40.50;99118.91;10372783;28;20406;-60
2021/07/30 22:46:21;;;;;;;9.45;1.50;;;;;;;19.39;41.86;99121.91;10377452;28;20512;-59
2021/07/30 22:51:22;;;;;;;7.90;1.60;;;;;;;19.25;42.27;99127.88;10383667;28;20508;-60
2021/07/30 22:56:26;;;;;;;5.00;1.60;;;;;;;19.07;41.85;99121.91;10378497;28;20050;-60
2021/07/30 23:01:28;;;;;;;4.25;1.50;;;;;;;18.94;42.38;99127.66;10369554;28;20073;-59
2021/07/30 23:06:30;;;;;;;6.72;1.67;;;;;;;18.85;42.47;99125.97;10375660;28;20056;-60
2021/07/30 23:11:31;;;;;;;4.00;1.50;;;;;;;18.80;42.97;99127.47;10386312;28;20145;-60
2021/07/30 23:16:33;;;;;;;7.07;1.40;;;;;;;18.74;43.15;99123.66;10361587;28;20045;-60
2021/07/30 23:21:35;;;;;;;6.20;1.52;;;;;;;18.70;43.56;99137.38;10361476;28;20052;-60
2021/07/30 23:26:38;;;;;;;6.32;1.73;;;;;;;18.62;43.71;99139.03;10385737;28;20050;-60